Time;durP1;ratioP1;P1;durP2;ratioP2;P2;SDS_P1;SDS_P2;PMS_P1;PMS_P2;Temp;Humidity;BMP_temperature;BMP_pressure;BME280_temperature;BME280_humidity;BME280_pressure;Samples;Min_cycle;Max_cycle;Signal;HPM_P1;HPM_P2
2021/07/11 00:00:17;;;;;;;3.80;3.42;;;15.20;99.90;;;;;;4978851;28;20449;-83
2021/07/11 00:02:43;;;;;;;4.20;3.80;;;15.20;99.90;;;;;;4956292;28;20041;-83
2021/07/11 00:05:10;;;;;;;4.28;3.88;;;15.20;99.90;;;;;;4978334;28;20128;-82
2021/07/11 00:07:36;;;;;;;4.28;3.83;;;15.10;99.90;;;;;;4971041;28;20426;-82
2021/07/11 00:10:07;;;;;;;4.28;3.83;;;15.10;99.90;;;;;;4972538;28;20125;-83
2021/07/11 00:12:33;;;;;;;3.78;3.47;;;15.10;99.90;;;;;;4955985;28;20031;-83
2021/07/11 00:14:59;;;;;;;4.40;3.92;;;15.00;99.90;;;;;;4972661;28;20031;-83
2021/07/11 00:17:24;;;;;;;5.05;4.07;;;15.00;99.90;;;;;;4990845;28;20081;-83
2021/07/11 00:19:50;;;;;;;4.35;3.95;;;15.00;99.90;;;;;;4984189;28;20027;-82
2021/07/11 00:22:16;;;;;;;4.00;3.60;;;15.00;99.90;;;;;;4972770;28;20102;-83
2021/07/11 00:24:43;;;;;;;4.13;3.72;;;14.90;99.90;;;;;;4983976;28;20118;-83
2021/07/11 00:27:10;;;;;;;4.72;4.15;;;14.90;99.90;;;;;;4966584;28;20034;-83
2021/07/11 00:29:36;;;;;;;3.83;3.40;;;14.90;99.90;;;;;;4978576;28;20416;-82
2021/07/11 00:32:03;;;;;;;4.20;3.78;;;14.90;99.90;;;;;;4975420;28;20505;-82
2021/07/11 00:34:28;;;;;;;3.80;3.40;;;14.80;99.90;;;;;;4984533;28;20038;-83
2021/07/11 00:36:54;;;;;;;4.00;3.70;;;14.80;99.90;;;;;;4958178;28;20030;-83
2021/07/11 00:39:20;;;;;;;4.13;3.72;;;14.80;99.90;;;;;;4965474;28;20054;-83
2021/07/11 00:41:46;;;;;;;4.80;3.92;;;14.80;99.90;;;;;;4969072;28;20059;-83
2021/07/11 00:44:13;;;;;;;4.50;4.10;;;14.80;99.90;;;;;;4965805;28;20038;-83
2021/07/11 00:46:47;;;;;;;4.85;3.58;;;14.80;99.90;;;;;;4958843;28;20035;-82
2021/07/11 00:49:14;;;;;;;5.32;4.47;;;14.80;99.90;;;;;;4968624;28;20151;-82
2021/07/11 00:51:42;;;;;;;4.03;3.63;;;14.70;99.90;;;;;;4961991;28;20089;-82
2021/07/11 00:54:08;;;;;;;4.03;3.58;;;14.70;99.90;;;;;;4982567;28;20030;-82
2021/07/11 00:56:34;;;;;;;4.38;3.97;;;14.70;99.90;;;;;;4986853;28;20033;-83
2021/07/11 00:59:01;;;;;;;4.95;4.10;;;14.70;99.90;;;;;;4954733;28;20038;-82
2021/07/11 01:01:57;;;;;;;4.35;3.95;;;14.70;99.90;;;;;;4948606;28;20032;-82
2021/07/11 01:04:30;;;;;;;5.33;3.90;;;14.70;99.90;;;;;;4963454;28;20529;-82
2021/07/11 01:07:01;;;;;;;4.85;4.18;;;14.60;99.90;;;;;;4970797;28;20027;-82
2021/07/11 01:09:34;;;;;;;5.93;4.68;;;14.60;99.90;;;;;;4965100;28;20034;-82
2021/07/11 01:12:12;;;;;;;4.85;4.00;;;14.60;99.90;;;;;;4970779;28;20093;-82
2021/07/11 01:14:44;;;;;;;5.30;4.22;;;14.60;99.90;;;;;;4956170;28;20042;-82
2021/07/11 01:17:13;;;;;;;5.63;4.22;;;14.60;99.90;;;;;;4965950;28;20034;-82
2021/07/11 01:19:53;;;;;;;8.57;4.78;;;14.60;99.90;;;;;;4956532;28;20031;-82
2021/07/11 01:22:22;;;;;;;4.78;4.28;;;14.60;99.90;;;;;;4988510;28;20064;-83
2021/07/11 01:24:58;;;;;;;4.60;4.20;;;14.60;99.90;;;;;;4948654;28;20034;-82
2021/07/11 01:27:25;;;;;;;6.35;4.22;;;14.60;99.90;;;;;;4959348;28;20039;-82
2021/07/11 01:29:52;;;;;;;6.90;4.30;;;14.60;99.90;;;;;;4966821;28;20129;-82
2021/07/11 01:32:18;;;;;;;4.85;4.15;;;14.60;99.90;;;;;;4954046;28;20089;-82
2021/07/11 01:34:48;;;;;;;5.80;4.75;;;14.60;99.90;;;;;;4964299;28;20027;-82
2021/07/11 01:37:15;;;;;;;5.28;4.35;;;14.60;99.90;;;;;;4976913;28;20486;-82
2021/07/11 01:39:43;;;;;;;5.68;4.10;;;14.60;99.90;;;;;;4956823;28;20034;-82
2021/07/11 01:42:12;;;;;;;4.85;4.18;;;14.60;99.90;;;;;;4990135;28;20037;-82
2021/07/11 01:44:41;;;;;;;4.38;3.97;;;14.70;99.90;;;;;;4968953;28;20088;-82
2021/07/11 01:47:08;;;;;;;4.30;3.90;;;14.70;99.90;;;;;;4985708;28;20030;-82
2021/07/11 01:49:39;;;;;;;5.72;4.03;;;14.70;99.90;;;;;;4971256;28;20030;-82
2021/07/11 01:52:06;;;;;;;5.55;3.50;;;14.70;99.90;;;;;;4970555;28;20026;-83
2021/07/11 01:54:32;;;;;;;3.35;3.05;;;14.70;99.90;;;;;;4964313;28;20051;-82
2021/07/11 01:56:59;;;;;;;4.07;2.95;;;14.70;99.90;;;;;;4981524;28;20038;-82
2021/07/11 01:59:26;;;;;;;3.85;3.25;;;14.70;99.90;;;;;;4948325;28;20177;-82
2021/07/11 02:02:06;;;;;;;3.20;2.97;;;14.60;99.90;;;;;;4970399;28;20023;-82
2021/07/11 02:04:37;;;;;;;3.75;3.22;;;14.60;99.90;;;;;;4940100;28;20102;-82
2021/07/11 02:07:04;;;;;;;4.00;3.63;;;14.60;99.90;;;;;;4983063;28;20049;-82
2021/07/11 02:09:30;;;;;;;5.05;3.70;;;14.60;99.90;;;;;;4971132;28;20037;-82
2021/07/11 02:12:05;;;;;;;4.80;3.70;;;14.50;99.90;;;;;;4970653;28;20490;-82
2021/07/11 02:14:48;;;;;;;4.45;3.83;;;14.50;99.90;;;;;;4974477;28;20137;-82
2021/07/11 02:17:18;;;;;;;5.13;3.88;;;14.40;99.90;;;;;;4985024;28;20442;-83
2021/07/11 02:20:09;;;;;;;4.63;3.70;;;14.40;99.90;;;;;;4980782;28;20109;-82
2021/07/11 02:22:44;;;;;;;4.53;3.70;;;14.40;99.90;;;;;;4969809;28;20046;-82
2021/07/11 02:25:16;;;;;;;5.28;4.38;;;14.40;99.90;;;;;;4962784;28;20058;-82
2021/07/11 02:27:47;;;;;;;4.75;4.25;;;14.40;99.90;;;;;;4982582;28;20030;-82
2021/07/11 02:30:17;;;;;;;5.45;3.92;;;14.40;99.90;;;;;;4969620;28;20047;-82
2021/07/11 02:32:53;;;;;;;7.65;4.68;;;14.30;99.90;;;;;;4973765;28;20038;-82
2021/07/11 02:35:39;;;;;;;5.60;4.65;;;14.30;99.90;;;;;;4966050;28;20110;-82
2021/07/11 02:38:07;;;;;;;5.57;4.30;;;14.40;99.90;;;;;;4984258;28;20121;-82
2021/07/11 02:40:35;;;;;;;5.00;4.50;;;14.40;99.90;;;;;;4984132;28;20034;-82
2021/07/11 02:43:05;;;;;;;4.78;4.15;;;14.40;99.90;;;;;;4971866;28;20042;-82
2021/07/11 02:45:35;;;;;;;6.78;4.00;;;14.30;99.90;;;;;;4970455;28;20026;-82
2021/07/11 02:48:04;;;;;;;7.25;4.53;;;14.30;99.90;;;;;;4981602;28;20046;-83
2021/07/11 02:50:37;;;;;;;6.63;4.15;;;14.30;99.90;;;;;;4968883;28;20097;-82
2021/07/11 02:53:04;;;;;;;5.63;4.05;;;14.30;99.90;;;;;;4973803;28;20047;-83
2021/07/11 02:55:35;;;;;;;4.20;3.60;;;14.30;99.90;;;;;;4966641;28;20022;-83
2021/07/11 02:58:10;;;;;;;4.40;3.90;;;14.20;99.90;;;;;;4992991;28;20037;-83
2021/07/11 03:00:38;;;;;;;7.38;4.55;;;14.20;99.90;;;;;;4981541;28;20517;-82
2021/07/11 03:03:08;;;;;;;5.55;3.42;;;14.20;99.90;;;;;;4968807;28;20090;-82
2021/07/11 03:05:43;;;;;;;3.92;3.55;;;14.10;99.90;;;;;;4960698;28;20041;-82
2021/07/11 03:08:10;;;;;;;4.38;3.75;;;14.10;99.90;;;;;;4985151;28;20081;-82
2021/07/11 03:10:40;;;;;;;7.05;3.33;;;14.10;99.90;;;;;;4959180;28;20121;-82
2021/07/11 03:13:09;;;;;;;4.60;4.18;;;14.10;99.90;;;;;;4955930;28;20073;-83
2021/07/11 03:15:41;;;;;;;4.07;3.70;;;14.10;99.90;;;;;;4983308;28;20023;-82
2021/07/11 03:18:09;;;;;;;4.10;3.70;;;14.10;99.90;;;;;;4971804;28;20066;-82
2021/07/11 03:20:36;;;;;;;4.32;3.83;;;14.10;99.90;;;;;;4955965;28;20478;-82
2021/07/11 03:23:04;;;;;;;4.28;3.88;;;14.10;99.90;;;;;;4950220;28;20047;-83
2021/07/11 03:25:30;;;;;;;7.05;4.25;;;14.00;99.90;;;;;;4971325;28;20029;-82
2021/07/11 03:28:05;;;;;;;5.53;4.10;;;14.00;99.90;;;;;;4975882;28;20022;-82
2021/07/11 03:30:36;;;;;;;4.20;3.80;;;14.00;99.90;;;;;;4971547;28;20039;-82
2021/07/11 03:33:05;;;;;;;4.82;4.32;;;14.10;99.90;;;;;;4966025;28;20520;-82
2021/07/11 03:35:42;;;;;;;5.75;3.97;;;14.10;99.90;;;;;;4993083;28;20594;-82
2021/07/11 03:38:13;;;;;;;5.90;4.50;;;14.20;99.90;;;;;;4971477;28;20030;-82
2021/07/11 03:40:42;;;;;;;5.22;4.43;;;14.20;99.90;;;;;;4967722;28;20437;-82
2021/07/11 03:43:11;;;;;;;5.47;4.80;;;14.20;99.90;;;;;;4982122;28;20524;-83
2021/07/11 03:45:41;;;;;;;5.00;4.50;;;14.20;99.90;;;;;;4980517;28;20038;-82
2021/07/11 03:48:12;;;;;;;4.75;4.35;;;14.20;99.90;;;;;;4965814;28;20026;-82
2021/07/11 03:50:41;;;;;;;5.90;4.20;;;14.20;99.90;;;;;;4963442;28;20137;-82
2021/07/11 03:53:09;;;;;;;5.22;4.57;;;14.20;99.90;;;;;;4976176;28;20060;-82
2021/07/11 03:55:36;;;;;;;4.43;4.03;;;14.40;99.90;;;;;;4975866;28;20030;-82
2021/07/11 03:58:04;;;;;;;4.20;3.80;;;14.40;99.90;;;;;;4990784;28;20026;-82
2021/07/11 04:00:31;;;;;;;4.82;4.35;;;14.50;99.90;;;;;;4974180;28;20034;-82
2021/07/11 04:03:00;;;;;;;4.65;3.53;;;14.50;99.90;;;;;;4986054;28;20031;-82
2021/07/11 04:05:30;;;;;;;4.88;4.38;;;14.60;99.90;;;;;;4963832;28;20038;-82
2021/07/11 04:07:57;;;;;;;4.45;4.05;;;14.60;99.90;;;;;;4980951;28;20121;-82
2021/07/11 04:10:28;;;;;;;6.85;4.43;;;14.60;99.90;;;;;;4953743;28;20599;-82
2021/07/11 04:12:55;;;;;;;6.45;4.00;;;14.60;99.90;;;;;;4948979;28;20031;-82
2021/07/11 04:15:21;;;;;;;4.07;3.70;;;14.70;99.90;;;;;;4966164;28;20054;-82
2021/07/11 04:17:53;;;;;;;4.78;3.88;;;14.70;99.90;;;;;;4971759;28;20027;-82
2021/07/11 04:20:20;;;;;;;4.40;4.00;;;14.80;99.90;;;;;;4978754;28;20026;-82
2021/07/11 04:22:48;;;;;;;5.00;4.18;;;14.90;99.90;;;;;;4973595;28;20080;-83
2021/07/11 04:25:15;;;;;;;5.13;4.00;;;14.90;99.90;;;;;;4976204;28;20034;-83
2021/07/11 04:27:42;;;;;;;5.30;4.80;;;14.90;99.90;;;;;;4969773;28;20026;-82
2021/07/11 04:30:08;;;;;;;5.43;4.57;;;14.90;99.90;;;;;;4980267;28;20030;-83
2021/07/11 04:32:35;;;;;;;5.05;4.45;;;15.00;99.90;;;;;;4963643;28;20089;-82
2021/07/11 04:35:02;;;;;;;7.68;4.88;;;15.00;99.90;;;;;;4979109;28;20041;-82
2021/07/11 04:37:28;;;;;;;5.78;5.18;;;15.10;99.90;;;;;;4976297;28;20116;-82
2021/07/11 04:39:53;;;;;;;6.00;5.00;;;15.10;99.90;;;;;;4962044;28;20058;-82
2021/07/11 04:42:19;;;;;;;5.72;5.03;;;15.20;99.90;;;;;;4975953;28;20508;-83
2021/07/11 04:44:45;;;;;;;6.93;4.70;;;15.20;99.90;;;;;;4969570;28;20026;-82
2021/07/11 04:47:13;;;;;;;5.28;4.78;;;15.20;99.90;;;;;;4953855;28;20125;-82
2021/07/11 04:49:38;;;;;;;6.55;5.07;;;15.30;99.90;;;;;;4973672;28;20038;-82
2021/07/11 04:52:05;;;;;;;6.00;5.18;;;15.30;99.90;;;;;;4955475;28;20049;-83
2021/07/11 04:54:33;;;;;;;8.35;5.50;;;15.40;99.90;;;;;;4985298;28;20034;-83
2021/07/11 04:56:59;;;;;;;7.60;5.22;;;15.50;99.90;;;;;;4951733;28;20043;-82
2021/07/11 04:59:24;;;;;;;7.18;4.97;;;15.50;99.90;;;;;;4964507;28;20035;-82
2021/07/11 05:01:50;;;;;;;6.03;5.13;;;15.60;99.90;;;;;;4989835;28;20548;-82
2021/07/11 05:04:16;;;;;;;5.47;4.85;;;15.60;99.90;;;;;;4971020;28;20507;-82
2021/07/11 05:06:42;;;;;;;8.75;5.40;;;15.60;99.90;;;;;;4935467;28;20038;-82
2021/07/11 05:09:08;;;;;;;6.10;5.35;;;15.60;99.90;;;;;;4927974;28;20039;-82
2021/07/11 05:11:34;;;;;;;6.88;4.80;;;15.60;99.90;;;;;;4982269;28;20112;-82
2021/07/11 05:14:00;;;;;;;6.50;5.47;;;15.60;99.90;;;;;;4966568;28;20444;-82
2021/07/11 05:16:26;;;;;;;6.00;5.40;;;15.70;99.90;;;;;;4989135;28;20088;-82
2021/07/11 05:18:52;;;;;;;6.07;4.85;;;15.60;99.90;;;;;;4981520;28;20026;-82
2021/07/11 05:21:18;;;;;;;5.40;4.70;;;15.60;99.90;;;;;;4989760;28;20503;-82
2021/07/11 05:23:44;;;;;;;5.10;4.60;;;15.70;99.90;;;;;;4973668;28;20035;-82
2021/07/11 05:26:09;;;;;;;5.38;4.88;;;15.70;99.90;;;;;;4954312;28;20038;-82
2021/07/11 05:28:35;;;;;;;4.97;4.32;;;15.70;99.90;;;;;;4965115;28;20058;-82
2021/07/11 05:31:01;;;;;;;5.40;4.90;;;15.80;99.90;;;;;;4981464;28;20513;-82
2021/07/11 05:33:27;;;;;;;4.72;4.20;;;15.80;99.90;;;;;;4971101;28;20042;-82
2021/07/11 05:35:54;;;;;;;8.57;4.88;;;15.80;99.90;;;;;;4982310;28;20049;-83
2021/07/11 05:38:19;;;;;;;7.45;4.55;;;15.90;99.90;;;;;;4961601;28;20073;-82
2021/07/11 05:40:45;;;;;;;5.28;4.82;;;15.90;99.90;;;;;;4969606;28;20027;-83
2021/07/11 05:43:11;;;;;;;5.47;4.97;;;15.90;99.90;;;;;;4968126;28;20037;-83
2021/07/11 05:45:37;;;;;;;5.13;4.38;;;15.90;99.90;;;;;;4982627;28;20524;-83
2021/07/11 05:48:03;;;;;;;8.60;5.38;;;16.00;99.90;;;;;;4990208;28;20567;-82
2021/07/11 05:50:28;;;;;;;5.20;4.70;;;16.00;99.90;;;;;;4977561;28;20031;-82
2021/07/11 05:52:54;;;;;;;6.65;5.53;;;16.00;99.90;;;;;;4950842;28;20535;-82
2021/07/11 05:55:20;;;;;;;5.30;4.78;;;16.10;99.90;;;;;;4966690;28;20425;-82
2021/07/11 05:57:46;;;;;;;5.60;5.00;;;16.10;99.90;;;;;;4972648;28;20034;-82
2021/07/11 06:00:12;;;;;;;4.88;4.40;;;16.00;99.90;;;;;;4964303;28;20038;-82
2021/07/11 06:02:41;;;;;;;5.97;5.38;;;16.00;99.90;;;;;;4980874;28;20504;-82
2021/07/11 06:05:07;;;;;;;6.82;5.25;;;16.10;99.90;;;;;;4949669;28;20027;-83
2021/07/11 06:07:33;;;;;;;6.53;5.35;;;16.10;99.90;;;;;;4956624;28;20037;-83
2021/07/11 06:09:59;;;;;;;5.78;5.18;;;16.10;99.90;;;;;;4968521;28;20129;-83
2021/07/11 06:12:25;;;;;;;7.40;6.30;;;16.20;99.90;;;;;;4981427;28;20049;-83
2021/07/11 06:14:52;;;;;;;5.72;5.22;;;16.20;99.90;;;;;;4984578;28;20045;-83
2021/07/11 06:17:18;;;;;;;7.72;6.05;;;16.30;99.90;;;;;;4977384;28;20031;-83
2021/07/11 06:19:43;;;;;;;7.38;5.85;;;16.30;99.90;;;;;;4968348;28;20076;-82
2021/07/11 06:22:09;;;;;;;7.22;6.15;;;16.40;99.90;;;;;;4976074;28;20422;-82
2021/07/11 06:24:35;;;;;;;6.40;5.80;;;16.40;99.90;;;;;;4974652;28;20486;-82
2021/07/11 06:27:01;;;;;;;6.55;5.82;;;16.40;99.90;;;;;;4992976;28;20031;-83
2021/07/11 06:29:27;;;;;;;6.43;5.55;;;16.50;99.90;;;;;;4973749;28;20042;-83
2021/07/11 06:31:52;;;;;;;6.63;5.95;;;16.50;99.90;;;;;;4993655;28;20030;-83
2021/07/11 06:34:18;;;;;;;6.65;5.32;;;16.50;99.90;;;;;;4972289;28;20047;-84
2021/07/11 06:36:44;;;;;;;7.15;5.22;;;16.40;99.90;;;;;;4967967;28;20082;-84
2021/07/11 06:39:10;;;;;;;6.07;5.47;;;16.40;99.90;;;;;;4969353;28;20432;-84
2021/07/11 06:41:36;;;;;;;5.55;5.05;;;16.40;99.90;;;;;;4966900;28;20039;-84
2021/07/11 06:44:02;;;;;;;8.02;5.22;;;16.40;99.90;;;;;;4966853;28;20535;-85
2021/07/11 06:46:27;;;;;;;6.00;5.22;;;16.50;99.90;;;;;;4981127;28;20057;-84
2021/07/11 06:48:53;;;;;;;6.20;5.40;;;16.40;99.90;;;;;;4967217;28;20042;-84
2021/07/11 06:51:19;;;;;;;5.65;5.00;;;16.40;99.90;;;;;;4958831;28;20034;-84
2021/07/11 06:53:44;;;;;;;6.28;4.25;;;16.40;99.90;;;;;;4972697;28;20457;-84
2021/07/11 06:56:10;;;;;;;5.10;4.60;;;16.50;99.90;;;;;;4959504;28;20481;-84
2021/07/11 06:58:36;;;;;;;5.32;4.55;;;16.50;99.90;;;;;;4959879;28;20485;-84
2021/07/11 07:01:02;;;;;;;4.95;4.43;;;16.50;99.90;;;;;;4955015;28;20041;-85
2021/07/11 07:03:30;;;;;;;4.45;4.05;;;16.50;99.90;;;;;;4957092;28;20077;-84
2021/07/11 07:05:56;;;;;;;9.40;4.22;;;16.50;99.90;;;;;;4978878;28;20038;-84
2021/07/11 07:08:25;;;;;;;4.78;3.58;;;16.50;99.90;;;;;;4962897;28;20046;-84
2021/07/11 07:10:51;;;;;;;4.05;3.50;;;16.50;99.90;;;;;;4971605;28;20038;-85
2021/07/11 07:13:17;;;;;;;5.05;3.05;;;16.50;99.90;;;;;;4984253;28;20035;-85
2021/07/11 07:15:43;;;;;;;4.00;3.60;;;16.40;99.90;;;;;;4955548;28;20414;-85
2021/07/11 07:18:09;;;;;;;3.70;3.40;;;16.40;99.90;;;;;;4953142;28;20027;-85
2021/07/11 07:20:34;;;;;;;4.18;3.78;;;16.40;99.90;;;;;;4955706;28;20464;-85
2021/07/11 07:23:00;;;;;;;3.42;2.88;;;16.40;99.90;;;;;;4983354;28;20442;-85
2021/07/11 07:25:26;;;;;;;3.42;3.05;;;16.40;99.90;;;;;;4949299;28;20065;-85
2021/07/11 07:27:52;;;;;;;4.20;3.00;;;16.30;99.90;;;;;;4958029;28;20454;-84
2021/07/11 07:30:19;;;;;;;4.45;3.05;;;16.40;99.90;;;;;;4968068;28;20057;-85
2021/07/11 07:32:48;;;;;;;3.80;3.40;;;16.40;99.90;;;;;;4967345;28;20042;-85
2021/07/11 07:35:16;;;;;;;3.38;3.08;;;16.50;99.90;;;;;;4983257;28;20552;-84
2021/07/11 07:37:43;;;;;;;3.38;3.08;;;16.40;99.90;;;;;;4952718;28;20039;-85
2021/07/11 07:40:10;;;;;;;3.78;3.17;;;16.50;99.90;;;;;;4979441;28;20050;-84
2021/07/11 07:42:35;;;;;;;3.58;3.28;;;16.60;99.90;;;;;;4966430;28;20034;-85
2021/07/11 07:45:03;;;;;;;2.92;2.70;;;16.60;99.90;;;;;;4949776;28;20100;-86
2021/07/11 07:47:29;;;;;;;2.95;2.65;;;16.60;99.90;;;;;;4989802;28;20041;-86
2021/07/11 07:49:55;;;;;;;3.20;2.90;;;16.60;99.90;;;;;;4961180;28;20033;-84
2021/07/11 07:52:20;;;;;;;3.22;2.92;;;16.60;99.90;;;;;;4966185;28;20070;-85
2021/07/11 07:54:46;;;;;;;3.67;2.63;;;16.60;99.90;;;;;;4955250;28;20113;-84
2021/07/11 07:57:12;;;;;;;2.80;2.60;;;16.60;99.90;;;;;;4959170;28;20054;-84
2021/07/11 07:59:38;;;;;;;3.00;2.78;;;16.60;99.90;;;;;;4970946;28;20062;-85
2021/07/11 08:02:03;;;;;;;2.70;2.50;;;16.60;99.90;;;;;;4958590;28;20041;-87
2021/07/11 08:04:29;;;;;;;2.80;2.60;;;16.70;99.90;;;;;;4954705;28;20038;-85
2021/07/11 08:06:55;;;;;;;2.72;2.53;;;16.70;99.90;;;;;;4955327;28;20104;-84
2021/07/11 08:09:21;;;;;;;2.83;2.63;;;16.70;99.90;;;;;;4973632;28;20049;-84
2021/07/11 08:11:47;;;;;;;4.38;2.85;;;16.70;99.90;;;;;;4971796;28;20065;-84
2021/07/11 08:14:13;;;;;;;3.05;2.75;;;16.70;99.90;;;;;;4971861;28;20236;-86
2021/07/11 08:16:42;;;;;;;2.75;2.55;;;16.70;99.90;;;;;;4980952;28;20038;-85
2021/07/11 08:19:08;;;;;;;2.58;2.38;;;16.70;99.90;;;;;;4989738;28;20034;-85
2021/07/11 08:21:34;;;;;;;2.60;2.40;;;16.60;99.90;;;;;;4970470;28;20023;-85
2021/07/11 08:23:59;;;;;;;2.38;2.17;;;16.60;99.90;;;;;;4961822;28;20643;-85
2021/07/11 08:26:25;;;;;;;2.15;2.05;;;16.60;99.90;;;;;;4987058;28;20480;-85
2021/07/11 08:28:51;;;;;;;1.98;1.88;;;16.60;99.90;;;;;;4965631;28;20054;-85
2021/07/11 08:31:17;;;;;;;2.05;1.80;;;16.60;99.90;;;;;;4956052;28;20138;-85
2021/07/11 08:33:42;;;;;;;2.00;1.90;;;16.60;99.90;;;;;;4967990;28;20062;-85
2021/07/11 08:36:08;;;;;;;2.10;1.90;;;16.60;99.90;;;;;;4971006;28;20389;-85
2021/07/11 08:38:34;;;;;;;2.28;2.08;;;16.60;99.90;;;;;;4982352;28;20082;-85
2021/07/11 08:41:00;;;;;;;2.67;1.75;;;16.70;99.90;;;;;;4960497;28;20069;-85
2021/07/11 08:43:26;;;;;;;2.40;2.20;;;16.60;99.90;;;;;;4972165;28;20038;-86
2021/07/11 08:45:53;;;;;;;2.25;2.08;;;16.70;99.90;;;;;;4964049;28;20101;-85
2021/07/11 08:48:19;;;;;;;2.10;2.00;;;16.70;99.90;;;;;;4981747;28;20084;-86
2021/07/11 08:50:44;;;;;;;1.80;1.70;;;16.70;99.90;;;;;;4962220;28;20030;-84
2021/07/11 08:53:15;;;;;;;1.50;1.40;;;16.70;99.90;;;;;;4968217;28;20077;-84
2021/07/11 08:55:42;;;;;;;2.92;1.75;;;16.80;99.90;;;;;;4964646;28;20031;-84
2021/07/11 08:58:12;;;;;;;2.10;2.00;;;16.80;99.90;;;;;;4984542;28;20027;-85
2021/07/11 09:00:38;;;;;;;1.63;1.52;;;16.80;99.90;;;;;;4971288;28;20084;-85
2021/07/11 09:03:06;;;;;;;1.40;1.30;;;16.90;99.90;;;;;;4987623;28;20034;-85
2021/07/11 09:05:36;;;;;;;2.05;1.27;;;16.90;99.90;;;;;;4969304;28;20034;-85
2021/07/11 09:08:19;;;;;;;1.50;1.40;;;16.90;99.90;;;;;;4965628;28;20174;-85
2021/07/11 09:10:57;;;;;;;1.40;1.30;;;16.90;99.90;;;;;;4950640;28;20034;-85
2021/07/11 09:13:26;;;;;;;1.45;1.35;;;16.90;99.90;;;;;;4971574;28;20030;-85
2021/07/11 09:15:54;;;;;;;1.92;1.35;;;17.00;99.90;;;;;;4967405;28;21425;-85
2021/07/11 09:18:29;;;;;;;1.40;1.30;;;17.00;99.90;;;;;;4958756;28;20448;-85
2021/07/11 09:21:06;;;;;;;1.17;1.15;;;17.10;99.90;;;;;;4959209;28;20064;-85
2021/07/11 09:23:33;;;;;;;1.00;1.00;;;17.10;99.90;;;;;;4970164;28;20031;-85
2021/07/11 09:26:08;;;;;;;0.95;0.95;;;17.20;99.90;;;;;;4944142;28;20042;-84
2021/07/11 09:28:43;;;;;;;1.20;1.20;;;17.20;99.90;;;;;;4948544;28;20043;-86
2021/07/11 09:31:11;;;;;;;1.00;1.00;;;17.30;99.90;;;;;;4978879;28;20445;-84
2021/07/11 09:33:40;;;;;;;0.90;0.90;;;17.30;99.90;;;;;;4955127;28;20049;-84
2021/07/11 09:36:17;;;;;;;1.30;1.02;;;17.40;99.90;;;;;;4973081;28;20030;-84
2021/07/11 09:38:59;;;;;;;1.17;1.15;;;17.40;99.90;;;;;;4967846;28;20030;-85
2021/07/11 09:41:32;;;;;;;0.90;0.90;;;17.50;99.90;;;;;;4975674;28;20490;-84
2021/07/11 09:44:00;;;;;;;1.23;1.13;;;17.40;99.90;;;;;;4995744;28;20022;-84
2021/07/11 09:46:28;;;;;;;1.45;1.10;;;17.40;99.90;;;;;;4971929;28;20050;-84
2021/07/11 09:48:54;;;;;;;1.52;1.30;;;17.30;99.90;;;;;;4979397;28;20031;-84
2021/07/11 09:51:25;;;;;;;1.45;1.35;;;17.30;99.90;;;;;;4963473;28;20034;-85
2021/07/11 09:53:53;;;;;;;1.50;1.40;;;17.20;99.90;;;;;;4957948;28;20035;-86
2021/07/11 09:56:36;;;;;;;1.48;1.38;;;17.10;99.90;;;;;;4986213;28;20023;-86
2021/07/11 09:59:04;;;;;;;1.58;1.48;;;17.10;99.90;;;;;;4971281;28;20062;-86
2021/07/11 10:01:32;;;;;;;1.38;1.30;;;17.10;99.90;;;;;;4971882;28;20046;-85
2021/07/11 10:03:59;;;;;;;1.67;1.58;;;17.10;99.90;;;;;;4963843;28;20125;-86
2021/07/11 10:06:26;;;;;;;1.60;1.50;;;17.00;99.90;;;;;;4958315;28;20100;-85
2021/07/11 10:08:52;;;;;;;1.52;1.42;;;17.00;99.90;;;;;;4974180;28;20047;-84
2021/07/11 10:11:18;;;;;;;1.67;1.58;;;17.00;99.90;;;;;;4978080;28;20114;-84
2021/07/11 10:13:44;;;;;;;1.50;1.40;;;17.00;99.90;;;;;;4971827;28;20034;-83
2021/07/11 10:16:12;;;;;;;1.58;1.48;;;17.10;99.90;;;;;;4969321;28;20057;-84
2021/07/11 10:18:39;;;;;;;1.20;1.10;;;17.10;99.90;;;;;;4956765;28;20249;-84
2021/07/11 10:21:05;;;;;;;1.50;1.40;;;17.10;99.90;;;;;;4959574;28;20031;-84
2021/07/11 10:23:34;;;;;;;1.55;1.45;;;17.20;99.90;;;;;;4976065;28;20038;-84
2021/07/11 10:26:02;;;;;;;2.03;1.75;;;17.20;99.90;;;;;;4952378;28;20038;-83
2021/07/11 10:28:34;;;;;;;2.00;1.90;;;17.30;99.90;;;;;;4965393;28;20100;-83
2021/07/11 10:31:00;;;;;;;1.80;1.70;;;17.30;99.90;;;;;;4966768;28;20043;-83
2021/07/11 10:33:26;;;;;;;1.85;1.75;;;17.40;99.90;;;;;;4985974;28;20027;-84
2021/07/11 10:35:59;;;;;;;2.03;1.83;;;17.50;99.90;;;;;;4950037;28;20061;-84
2021/07/11 10:38:29;;;;;;;1.90;1.80;;;17.50;99.90;;;;;;4987362;28;20018;-84
2021/07/11 10:41:07;;;;;;;2.08;1.88;;;17.50;99.90;;;;;;4964676;28;20025;-83
2021/07/11 10:43:33;;;;;;;1.77;1.67;;;17.60;99.90;;;;;;4958680;28;20045;-84
2021/07/11 10:45:59;;;;;;;1.70;1.60;;;17.50;99.90;;;;;;4963130;28;20026;-84
2021/07/11 10:48:30;;;;;;;2.40;1.60;;;17.60;99.90;;;;;;4969976;28;20129;-84
2021/07/11 10:50:55;;;;;;;1.70;1.60;;;17.70;99.90;;;;;;4988235;28;20540;-83
2021/07/11 10:53:21;;;;;;;1.92;1.83;;;17.60;99.90;;;;;;4938176;28;20137;-86
2021/07/11 10:55:48;;;;;;;1.80;1.70;;;17.60;99.90;;;;;;4968339;28;20023;-86
2021/07/11 10:58:17;;;;;;;2.10;1.95;;;17.60;99.90;;;;;;4961134;28;20031;-86
2021/07/11 11:00:45;;;;;;;2.00;1.90;;;17.50;99.90;;;;;;4950314;28;20507;-86
2021/07/11 11:03:18;;;;;;;2.15;1.95;;;17.50;99.90;;;;;;4973979;28;20034;-87
2021/07/11 11:05:45;;;;;;;1.98;1.80;;;17.50;99.90;;;;;;4951861;28;20393;-86
2021/07/11 11:08:23;;;;;;;1.83;1.73;;;17.50;99.90;;;;;;4939994;28;20046;-86
2021/07/11 11:10:56;;;;;;;1.77;1.63;;;17.50;99.90;;;;;;4969278;28;20122;-87
2021/07/11 11:13:25;;;;;;;1.70;1.52;;;17.60;99.90;;;;;;4986351;28;20117;-86
2021/07/11 11:16:12;;;;;;;1.90;1.80;;;17.60;99.90;;;;;;4981369;28;20393;-84
2021/07/11 11:18:39;;;;;;;1.90;1.80;;;17.60;99.90;;;;;;4954107;28;20038;-85
2021/07/11 11:21:05;;;;;;;2.33;1.73;;;17.60;99.90;;;;;;4950487;28;20520;-83
2021/07/11 11:23:40;;;;;;;2.13;1.70;;;17.60;99.90;;;;;;4962287;28;20049;-84
2021/07/11 11:26:08;;;;;;;1.70;1.60;;;17.50;99.90;;;;;;4959952;28;20077;-83
2021/07/11 11:28:38;;;;;;;2.40;1.50;;;17.50;99.90;;;;;;4967646;28;20493;-83
2021/07/11 11:31:13;;;;;;;1.67;1.58;;;17.50;99.90;;;;;;4964894;28;20096;-83
2021/07/11 11:34:17;;;;;;;1.67;1.58;;;17.40;99.90;;;;;;4981917;28;20053;-82
2021/07/11 11:36:48;;;;;;;1.70;1.60;;;17.30;99.90;;;;;;4954477;28;20054;-83
2021/07/11 11:39:18;;;;;;;2.03;1.80;;;17.30;99.90;;;;;;4986071;28;20533;-83
2021/07/11 11:41:44;;;;;;;1.67;1.58;;;17.20;99.90;;;;;;4964358;28;20386;-84
2021/07/11 11:44:13;;;;;;;2.05;1.85;;;17.10;99.90;;;;;;4961739;28;20054;-84
2021/07/11 11:46:41;;;;;;;1.95;1.70;;;17.10;99.90;;;;;;4970157;28;20088;-84
2021/07/11 11:49:09;;;;;;;2.05;1.85;;;17.10;99.90;;;;;;4973449;28;20048;-83
2021/07/11 11:51:41;;;;;;;2.83;1.60;;;17.10;99.90;;;;;;4942162;28;20038;-84
2021/07/11 11:54:07;;;;;;;2.05;1.92;;;17.10;99.90;;;;;;4964568;28;20125;-85
2021/07/11 11:56:36;;;;;;;2.40;1.98;;;17.00;99.90;;;;;;4966970;28;20138;-85
2021/07/11 11:59:05;;;;;;;2.33;1.90;;;17.00;99.90;;;;;;4960735;28;20097;-85
2021/07/11 12:01:36;;;;;;;2.13;1.90;;;16.90;99.90;;;;;;4986811;28;20018;-84
2021/07/11 12:04:08;;;;;;;1.95;1.85;;;17.00;99.90;;;;;;4972284;28;20038;-85
2021/07/11 12:06:34;;;;;;;2.42;2.22;;;17.00;99.90;;;;;;4967111;28;20529;-84
2021/07/11 12:09:00;;;;;;;2.80;2.10;;;17.00;99.90;;;;;;4960968;28;20355;-85
2021/07/11 12:11:26;;;;;;;2.70;2.30;;;17.00;99.90;;;;;;4960211;28;20043;-85
2021/07/11 12:13:51;;;;;;;2.35;2.15;;;17.00;99.90;;;;;;4960726;28;20121;-84
2021/07/11 12:16:19;;;;;;;2.70;1.70;;;17.00;99.90;;;;;;4961777;28;20077;-84
2021/07/11 12:18:49;;;;;;;3.83;2.13;;;17.00;99.90;;;;;;4976272;28;20034;-85
2021/07/11 12:21:28;;;;;;;2.60;2.40;;;17.00;99.90;;;;;;4971394;28;20400;-85
2021/07/11 12:23:57;;;;;;;5.22;2.95;;;17.00;99.90;;;;;;4961486;28;20038;-85
2021/07/11 12:26:25;;;;;;;3.63;3.30;;;17.10;99.90;;;;;;4966274;28;20464;-85
2021/07/11 12:28:52;;;;;;;3.28;2.97;;;17.10;99.90;;;;;;4987460;28;20060;-84
2021/07/11 12:31:24;;;;;;;3.10;2.83;;;17.20;99.90;;;;;;4955749;28;20125;-85
2021/07/11 12:34:05;;;;;;;2.80;2.60;;;17.20;99.90;;;;;;4983553;28;20102;-85
2021/07/11 12:36:32;;;;;;;2.80;2.50;;;17.30;99.90;;;;;;4938856;28;20030;-85
2021/07/11 12:38:59;;;;;;;2.60;2.40;;;17.30;99.90;;;;;;4951874;28;20026;-86
2021/07/11 12:41:31;;;;;;;5.13;2.58;;;17.40;99.90;;;;;;4967713;28;20030;-85
2021/07/11 12:43:58;;;;;;;2.20;2.00;;;17.40;99.90;;;;;;4964743;28;20191;-84
2021/07/11 12:46:26;;;;;;;2.90;2.63;;;17.40;99.90;;;;;;4978473;28;20031;-85
2021/07/11 12:48:57;;;;;;;2.60;2.40;;;17.50;99.90;;;;;;4973358;28;20034;-85
2021/07/11 12:51:41;;;;;;;2.72;2.53;;;17.40;99.90;;;;;;4965753;28;20120;-84
2021/07/11 12:54:14;;;;;;;2.45;2.25;;;17.40;99.90;;;;;;4976690;28;20108;-84